Relevés horaires Les Attelas (Suisse)


Relevés horaires à Les Attelas - Samedi 23 Janv. 2016
Heure UTC1 Température [°C] Vent [km/h] Hum. [%] Pres.4 [hPa] Visi. [Km] Nébu. [octa] Préc.5 [mm] Cond.
2m. Res. Ros. Dir.2 Vit. Moy. Raf.3
23:00 -0.8 -6.3 -32.7 NNE 20.4 22.2 31.5 7 700(0.2/3h) -- -- -- --
22:00 -0.6 -5.1 -34.2 NE 14.8 16.7 25.9 6 700(0.3/3h) -- -- -- --
21:00 -2.0 -6.8 -34.6 N 14.8 18.5 31.5 6 700(0.2/3h) -- -- -- --
20:00 -2.3 -7.2 -31.2 NE 14.8 18.5 29.6 9 700(0.6/3h) -- -- -- --
19:00 -3.4 -8.2 -29.6 NNE 13.0 18.5 31.5 11 700(1.1/3h) -- -- -- --
18:00 -3.6 -8.8 -27.4 NE 14.8 20.4 35.2 14 700(1.1/3h) -- -- -- --
17:00 -4.1 -9.8 -25.4 NNE 16.7 20.4 35.2 17 700(1.1/3h) -- -- -- --
16:00 -5.6 -9.8 -21.0 N 9.3 9.3 13.0 28 700(0.5/3h) -- -- -- --
15:00 -5.7 -9.9 -16.1 S 9.3 14.8 18.5 44 700(0.3/3h) -- -- -- --
14:00 -5.9 -11.6 -12.5 S 14.8 14.8 18.5 59 700(-0.1/3h) -- -- -- --
13:00 -5.3 -7.9 -16.8 SO 5.6 5.6 11.1 40 700(-0.1/3h) -- -- -- --
12:00 -6.3 -9.1 -18.0 ONO 5.6 16.7 35.2 39 700(0.3/3h) -- -- -- --
11:00 -5.9 -5.9 -14.6 SO 3.7 5.6 18.5 50 700(0.6/3h) -- -- -- --
10:00 -5.9 -8.6 -12.7 SO 5.6 14.8 16.7 58 700(0.8/3h) -- -- -- --
09:00 -5.9 -11.2 -6.0 S 13.0 16.7 35.2 99 700(0.8/3h) -- -- -- --
08:00 -6.7 -10.4 -6.9 NO 7.4 13.0 29.6 98 700(0.8/3h) -- -- -- --
07:00 -5.9 -11.2 -7.9 ONO 13.0 16.7 35.2 86 700(0.9/3h) -- -- -- --
06:00 -1.0 -3 -4.0 NNO 5.6 16.7 33.3 80 700(0.7/3h) -- -- -- --
05:00 -2.7 -4.9 -3.1 O 5.6 9.3 33.3 97 700(0.3/3h) -- -- -- --
04:00 -2.6 -4.8 -2.6 NNO 5.6 16.7 24.1 100 700(0.4/3h) -- -- -- --
03:00 -2.4 -6.5 -2.4 OSO 11.1 14.8 27.8 100 700(0.2/3h) -- -- -- --
02:00 -1.8 -6.2 -1.8 NO 13.0 14.8 25.9 100 700(0.9/3h) -- -- -- --
01:00 -2.8 -5.1 -2.8 OSO 5.6 13.0 22.2 100 700(0.7/3h) -- -- -- --
00:00 -2.9 -5.9 -2.9 O 7.4 27.8 53.7 100 700(0.8/3h) -- -- -- --

1 Coordinated Universal Time. Actuellement il est 22:00 locale et 20:00 UTC.

2 Le vent souffle depuis la direction indiquée vers la direction oposée.

3 Les rafales max. sont disponible 40 min après l'heure du relevé.

4 Pour les stations d'altitude (plus de 600m) le géopotentiel du niveau le plus proche de la pression obligatoire est indiqué.

5 Les stations disposant d'un diffuseur peuvent indiquer "trace". Cela signifie que des précipitations ont touchés le sol mais que la quantité est inférieure à 0.1 mm.

Copyright

Les données affichées sur cette page sont la propriété exclusive de Météo Suisse.

Récapitulatif de la journée
Température [°C] Vent [km/h] Ensoleillement4 [h] Precipitations totale5 [mm] Pression [Hpa]
Min1 Max.2 Moy.3 Max. Min Max.
-6.9 -1.0 15.7 53.7 7 h 18 min 0 700.0 700.0

1 Température minimale relevée entre 18:00 UTC la veille et 18:00 UTC le jour donné.

2 Température maximale relevée entre 06:00 UTC le jour donné et 06:00 UTC le lendemain.

3 Vent moyen de la journée basé sur les relevés horaires.

4 Ensoleillement en heures relevé entre 06:00 UTC la veille et 06:00 UTC le jour donné.

5 Précipitations totales tombées entre 06:00 UTC la jour donné et 06:00 UTC le lendemain.

Graphiques horaires